createdAt,value
2018-05-10T00:00:44.024Z,76.00
2018-05-10T00:03:11.890Z,75.90
2018-05-10T00:05:39.756Z,76.40
2018-05-10T00:08:07.623Z,76.00
2018-05-10T00:10:35.491Z,75.90
2018-05-10T00:13:03.356Z,75.90
2018-05-10T00:15:31.224Z,76.10
2018-05-10T00:17:59.090Z,76.50
2018-05-10T00:20:26.956Z,76.20
2018-05-10T00:22:54.824Z,76.50
2018-05-10T00:25:22.693Z,76.60
2018-05-10T00:27:51.479Z,76.60
2018-05-10T00:30:19.371Z,76.40
2018-05-10T00:32:47.210Z,76.40
2018-05-10T00:35:15.077Z,77.00
2018-05-10T00:37:42.943Z,76.90
2018-05-10T00:40:10.810Z,76.90
2018-05-10T00:42:38.779Z,77.20
2018-05-10T00:45:07.467Z,77.60
2018-05-10T00:47:35.332Z,77.70
2018-05-10T00:50:03.198Z,77.90
2018-05-10T00:52:31.169Z,77.40
2018-05-10T00:54:59.135Z,78.30
2018-05-10T00:57:27.009Z,77.20
2018-05-10T00:59:54.974Z,77.10
2018-05-10T01:02:22.838Z,76.70
2018-05-10T01:04:50.801Z,76.90
2018-05-10T01:07:19.391Z,77.30
2018-05-10T01:09:47.361Z,77.30
2018-05-10T01:12:15.227Z,76.90
2018-05-10T01:14:43.093Z,77.30
2018-05-10T01:17:11.063Z,77.50
2018-05-10T01:19:38.928Z,77.40
2018-05-10T01:22:06.898Z,77.80
2018-05-10T01:24:34.868Z,78.00
2018-05-10T01:27:02.735Z,77.70
2018-05-10T01:29:30.600Z,77.90
2018-05-10T01:31:58.466Z,78.20
2018-05-10T01:34:26.333Z,77.80
2018-05-10T01:36:54.199Z,77.70
2018-05-10T01:39:22.066Z,77.70
2018-05-10T01:41:49.932Z,78.10
2018-05-10T01:44:17.798Z,77.80
2018-05-10T01:46:45.668Z,77.40
2018-05-10T01:49:13.532Z,77.80
2018-05-10T01:51:41.404Z,78.20
2018-05-10T01:54:09.367Z,77.70
2018-05-10T01:56:37.338Z,77.50
2018-05-10T01:59:05.205Z,77.60
2018-05-10T02:01:33.175Z,77.40
2018-05-10T02:04:01.039Z,77.10
2018-05-10T02:06:28.863Z,77.20
2018-05-10T02:08:57.591Z,76.60
2018-05-10T02:11:25.459Z,76.60
2018-05-10T02:13:53.430Z,76.80
2018-05-10T02:16:21.293Z,76.80
2018-05-10T02:18:49.159Z,77.50
2018-05-10T02:21:17.026Z,77.20
2018-05-10T02:23:44.892Z,77.20
2018-05-10T02:26:12.759Z,76.90
2018-05-10T02:28:40.628Z,76.60
2018-05-10T02:31:08.493Z,76.40
2018-05-10T02:33:36.358Z,76.20
2018-05-10T02:36:04.225Z,76.60
2018-05-10T02:38:32.092Z,76.80
2018-05-10T02:40:59.958Z,77.30
2018-05-10T02:43:27.825Z,77.40
2018-05-10T02:45:55.692Z,77.50
2018-05-10T02:48:23.559Z,77.50
2018-05-10T02:50:51.353Z,77.40
2018-05-10T02:53:20.011Z,78.00
2018-05-10T02:55:47.876Z,78.30
2018-05-10T02:58:15.742Z,78.30
2018-05-10T03:00:43.710Z,77.80
2018-05-10T03:03:12.396Z,79.00
2018-05-10T03:05:40.367Z,78.10
2018-05-10T03:08:08.231Z,77.80
2018-05-10T03:10:36.098Z,78.00
2018-05-10T03:13:04.069Z,77.80
2018-05-10T03:15:31.969Z,77.50
2018-05-10T03:18:02.891Z,77.30
2018-05-10T03:20:34.494Z,77.20
2018-05-10T03:23:03.870Z,77.10
2018-05-10T03:25:32.616Z,76.30
2018-05-10T03:28:00.483Z,76.30
2018-05-10T03:30:28.349Z,76.60
2018-05-10T03:32:56.216Z,76.70
2018-05-10T03:35:24.082Z,76.50
2018-05-10T03:37:51.949Z,76.70
2018-05-10T03:40:19.815Z,76.60
2018-05-10T03:42:47.682Z,76.60
2018-05-10T03:45:15.552Z,76.70
2018-05-10T03:47:43.415Z,76.80
2018-05-10T03:50:11.277Z,76.70
2018-05-10T03:52:39.148Z,76.40
2018-05-10T03:55:07.021Z,76.70
2018-05-10T03:57:34.882Z,76.70
2018-05-10T04:00:02.772Z,76.80
2018-05-10T04:05:46.304Z,77.20
2018-05-10T04:08:26.047Z,77.20
2018-05-10T04:11:05.792Z,77.80
2018-05-10T04:13:33.659Z,77.70
2018-05-10T04:16:01.528Z,77.80
2018-05-10T04:18:29.392Z,77.40
2018-05-10T04:20:57.233Z,77.10
2018-05-10T04:23:25.125Z,77.00
2018-05-10T04:25:52.943Z,77.00
2018-05-10T04:28:20.859Z,77.10
2018-05-10T04:30:48.725Z,76.80
2018-05-10T04:33:16.592Z,76.60
2018-05-10T04:35:44.491Z,76.50
2018-05-10T04:38:13.103Z,76.50
2018-05-10T04:40:41.016Z,76.30
2018-05-10T04:43:08.877Z,76.00
2018-05-10T04:45:37.051Z,76.00
2018-05-10T04:48:04.918Z,76.00
2018-05-10T04:50:32.783Z,76.10
2018-05-10T04:53:00.651Z,76.10
2018-05-10T04:55:28.516Z,76.20
2018-05-10T04:57:56.589Z,75.80
2018-05-10T05:00:24.384Z,75.40
2018-05-10T05:02:52.324Z,76.70
2018-05-10T05:05:20.190Z,75.80
2018-05-10T05:07:48.158Z,76.20
2018-05-10T05:10:16.024Z,76.70
2018-05-10T05:12:43.992Z,76.80
2018-05-10T05:15:11.858Z,76.10
2018-05-10T05:17:39.725Z,76.10
2018-05-10T05:20:07.592Z,77.00
2018-05-10T05:22:35.459Z,76.30
2018-05-10T05:25:03.325Z,75.60
2018-05-10T05:27:31.191Z,76.40
2018-05-10T05:29:59.060Z,77.00
2018-05-10T05:32:26.927Z,76.20
2018-05-10T05:34:54.791Z,75.70
2018-05-10T05:37:22.658Z,75.50
2018-05-10T05:39:50.525Z,75.30
2018-05-10T05:42:18.496Z,75.10
2018-05-10T05:44:46.360Z,75.20
2018-05-10T05:47:14.226Z,75.00
2018-05-10T05:49:42.912Z,74.70
2018-05-10T05:52:10.779Z,74.70
2018-05-10T05:54:38.647Z,74.20
2018-05-10T05:57:06.512Z,73.80
2018-05-10T05:59:34.378Z,73.20
2018-05-10T06:02:02.347Z,73.30
2018-05-10T06:04:30.316Z,72.50
2018-05-10T06:06:58.184Z,71.30
2018-05-10T06:09:26.053Z,71.10
2018-05-10T06:11:53.845Z,70.90
2018-05-10T06:14:21.783Z,70.40
2018-05-10T06:16:49.649Z,70.50
2018-05-10T06:19:17.517Z,70.30
2018-05-10T06:21:45.383Z,70.90
2018-05-10T06:24:13.248Z,70.20
2018-05-10T06:26:41.115Z,69.20
2018-05-10T06:29:08.984Z,68.40
2018-05-10T06:31:36.849Z,68.30
2018-05-10T06:34:04.755Z,67.90
2018-05-10T06:36:33.401Z,67.70
2018-05-10T06:39:01.166Z,67.70
2018-05-10T06:41:29.155Z,67.20
2018-05-10T06:43:57.820Z,66.00
2018-05-10T06:46:25.687Z,66.00
2018-05-10T06:48:53.555Z,66.00
2018-05-10T06:51:21.419Z,66.20
2018-05-10T06:53:49.286Z,66.00
2018-05-10T06:56:17.152Z,65.80
2018-05-10T06:58:45.019Z,62.90
2018-05-10T07:01:12.887Z,59.90
2018-05-10T07:03:40.753Z,56.90
2018-05-10T07:06:08.619Z,53.50
2018-05-10T07:08:36.486Z,50.00
2018-05-10T07:11:04.354Z,47.00
2018-05-10T07:13:32.219Z,45.80
2018-05-10T07:16:00.086Z,42.60
2018-05-10T07:18:27.959Z,42.60
2018-05-10T07:20:55.819Z,40.40
2018-05-10T07:23:23.685Z,39.20
2018-05-10T07:25:51.552Z,37.30
2018-05-10T07:28:19.420Z,35.90
2018-05-10T07:30:47.285Z,34.90
2018-05-10T07:33:15.152Z,34.50
2018-05-10T07:35:43.019Z,32.70
2018-05-10T07:38:10.885Z,33.70
2018-05-10T07:40:38.751Z,33.30
2018-05-10T07:43:06.621Z,31.90
2018-05-10T07:45:34.485Z,33.10
2018-05-10T07:48:02.351Z,32.60
2018-05-10T07:50:30.218Z,32.50
2018-05-10T07:52:58.084Z,33.30
2018-05-10T07:55:25.955Z,33.90
2018-05-10T07:57:53.921Z,33.20
2018-05-10T08:00:21.889Z,34.70
2018-05-10T08:02:49.761Z,36.20
2018-05-10T08:05:17.622Z,37.20
2018-05-10T08:07:45.489Z,38.60
2018-05-10T08:10:13.379Z,39.10
2018-05-10T08:12:41.938Z,40.90
2018-05-10T08:15:09.805Z,40.90
2018-05-10T08:17:37.675Z,41.80
2018-05-10T08:20:05.642Z,42.00
2018-05-10T08:22:33.507Z,42.70
2018-05-10T08:25:01.374Z,42.10
2018-05-10T08:27:50.131Z,42.30
2018-05-10T08:30:18.023Z,41.00
2018-05-10T08:32:46.682Z,39.70
2018-05-10T08:35:14.549Z,39.60
2018-05-10T08:37:42.344Z,38.80
2018-05-10T08:40:10.281Z,36.80
2018-05-10T08:42:38.459Z,36.10
2018-05-10T08:45:06.378Z,37.10
2018-05-10T08:47:35.008Z,35.50
2018-05-10T08:50:02.875Z,35.50
2018-05-10T08:52:30.740Z,33.40
2018-05-10T08:54:58.537Z,33.40
2018-05-10T08:57:26.475Z,33.30
2018-05-10T08:59:54.451Z,33.40
2018-05-10T09:02:22.311Z,32.80
2018-05-10T09:04:50.176Z,33.50
2018-05-10T09:07:18.052Z,33.30
2018-05-10T09:09:45.910Z,33.20
2018-05-10T09:12:13.880Z,31.70
2018-05-10T09:14:41.744Z,31.60
2018-05-10T09:17:09.611Z,32.90
2018-05-10T09:19:37.478Z,33.90
2018-05-10T09:22:05.344Z,34.10
2018-05-10T09:24:33.210Z,34.40
2018-05-10T09:27:01.110Z,34.50
2018-05-10T09:29:29.764Z,33.90
2018-05-10T09:31:57.631Z,34.40
2018-05-10T09:34:25.530Z,32.90
2018-05-10T09:36:53.567Z,32.20
2018-05-10T09:39:21.502Z,32.20
2018-05-10T09:41:50.120Z,31.00
2018-05-10T09:44:18.043Z,31.00
2018-05-10T09:46:46.673Z,30.60
2018-05-10T09:49:14.539Z,30.40
2018-05-10T09:51:42.316Z,29.20
2018-05-10T09:54:10.858Z,28.80
2018-05-10T09:56:39.646Z,29.70
2018-05-10T09:59:07.649Z,29.00
2018-05-10T10:01:35.875Z,28.50
2018-05-10T10:04:03.825Z,29.10
2018-05-10T10:06:32.622Z,29.70
2018-05-10T10:09:00.610Z,29.60
2018-05-10T10:11:29.028Z,29.80
2018-05-10T10:13:57.013Z,31.00
2018-05-10T10:16:24.978Z,32.00
2018-05-10T10:18:52.944Z,31.50
2018-05-10T10:21:20.836Z,33.60
2018-05-10T10:23:49.506Z,35.30
2018-05-10T10:26:18.386Z,35.90
2018-05-10T10:28:47.513Z,36.80
2018-05-10T10:31:16.325Z,38.30
2018-05-10T10:33:44.192Z,38.30
2018-05-10T10:36:12.077Z,38.40
2018-05-10T10:38:40.112Z,39.30
2018-05-10T10:41:08.137Z,40.50
2018-05-10T10:43:36.889Z,40.30
2018-05-10T10:46:04.901Z,41.60
2018-05-10T10:48:32.964Z,41.90
2018-05-10T10:51:00.859Z,41.20
2018-05-10T10:53:29.504Z,40.90
2018-05-10T10:55:57.269Z,40.90
2018-05-10T10:58:25.074Z,41.10
2018-05-10T11:00:52.866Z,41.20
2018-05-10T11:03:20.705Z,41.20
2018-05-10T11:05:49.257Z,44.00
2018-05-10T11:08:17.124Z,44.00
2018-05-10T11:10:45.043Z,44.40
2018-05-10T11:13:13.676Z,44.20
2018-05-10T11:15:41.646Z,44.20
2018-05-10T11:18:09.431Z,46.10
2018-05-10T11:20:37.193Z,45.70
2018-05-10T11:23:05.028Z,46.80
2018-05-10T11:25:32.785Z,46.60
2018-05-10T11:28:00.570Z,46.50
2018-05-10T11:30:28.352Z,45.90
2018-05-10T11:32:56.888Z,46.40
2018-05-10T11:35:24.697Z,46.40
2018-05-10T11:37:52.472Z,45.60
2018-05-10T11:40:21.027Z,45.40
2018-05-10T11:42:48.815Z,45.30
2018-05-10T11:45:16.581Z,44.60
2018-05-10T11:47:44.342Z,44.60
2018-05-10T11:50:12.100Z,44.80
2018-05-10T11:52:39.861Z,45.30
2018-05-10T11:55:07.623Z,45.40
2018-05-10T11:57:35.386Z,46.00
2018-05-10T12:00:03.229Z,45.50
2018-05-10T12:02:31.095Z,45.10
2018-05-10T12:04:58.824Z,44.80
2018-05-10T12:07:27.357Z,42.50
2018-05-10T12:09:55.132Z,42.50
2018-05-10T12:12:22.917Z,43.70
2018-05-10T12:14:50.692Z,43.80
2018-05-10T12:17:19.310Z,44.70
2018-05-10T12:19:47.078Z,44.70
2018-05-10T12:22:14.961Z,43.90
2018-05-10T12:24:42.824Z,43.30
2018-05-10T12:27:11.005Z,43.60
2018-05-10T12:29:38.872Z,44.20
2018-05-10T12:32:06.738Z,44.70
2018-05-10T12:34:35.044Z,45.00
2018-05-10T12:37:03.802Z,47.60
2018-05-10T12:39:31.668Z,47.60
2018-05-10T12:41:59.466Z,48.10
2018-05-10T12:44:28.120Z,47.30
2018-05-10T12:46:55.926Z,47.30
2018-05-10T12:49:24.498Z,47.40
2018-05-10T12:51:52.299Z,47.40
2018-05-10T12:54:20.082Z,47.90
2018-05-10T12:56:47.889Z,48.00
2018-05-10T12:59:15.699Z,48.50
2018-05-10T13:01:43.801Z,49.70
2018-05-10T13:04:11.936Z,49.20
2018-05-10T13:06:39.710Z,49.60
2018-05-10T13:09:07.618Z,50.20
2018-05-10T13:11:35.469Z,49.90
2018-05-10T13:14:03.439Z,50.00
2018-05-10T13:16:31.305Z,49.30
2018-05-10T13:18:59.171Z,49.00
2018-05-10T13:21:27.038Z,49.10
2018-05-10T13:23:55.449Z,48.00
2018-05-10T13:26:23.213Z,48.80
2018-05-10T13:28:51.115Z,47.90
2018-05-10T13:31:20.348Z,48.00
2018-05-10T13:33:48.208Z,47.40
2018-05-10T13:36:16.286Z,47.60
2018-05-10T13:38:46.507Z,48.30
2018-05-10T13:41:14.258Z,48.20
2018-05-10T13:43:42.139Z,48.60
2018-05-10T13:46:09.932Z,48.00
2018-05-10T13:48:38.390Z,48.20
2018-05-10T13:51:06.686Z,48.00
2018-05-10T13:53:34.436Z,48.40
2018-05-10T13:56:02.791Z,47.30
2018-05-10T13:58:30.549Z,47.90
2018-05-10T14:00:58.759Z,48.20
2018-05-10T14:03:26.961Z,48.30
2018-05-10T14:05:55.477Z,48.40
2018-05-10T14:08:23.364Z,48.40
2018-05-10T14:10:51.211Z,49.00
2018-05-10T14:13:19.818Z,48.40
2018-05-10T14:15:47.682Z,48.40
2018-05-10T14:18:15.547Z,49.00
2018-05-10T14:20:43.413Z,48.40
2018-05-10T14:23:11.281Z,48.90
2018-05-10T14:25:39.147Z,49.60
2018-05-10T14:28:06.945Z,49.60
2018-05-10T14:30:35.495Z,49.00
2018-05-10T14:33:03.571Z,48.90
2018-05-10T14:35:32.152Z,50.80
2018-05-10T14:37:59.916Z,50.40
2018-05-10T14:40:27.712Z,49.30
2018-05-10T14:42:56.255Z,47.60
2018-05-10T14:45:24.034Z,47.60
2018-05-10T14:47:51.891Z,49.20
2018-05-10T14:50:19.759Z,50.50
2018-05-10T14:52:47.527Z,50.60
2018-05-10T14:55:15.494Z,50.30
2018-05-10T14:57:44.926Z,48.80
2018-05-10T15:00:12.689Z,48.70
2018-05-10T15:02:40.790Z,47.40
2018-05-10T15:05:08.558Z,48.40
2018-05-10T15:07:36.329Z,49.20
2018-05-10T15:10:04.153Z,49.50
2018-05-10T15:12:31.911Z,49.90
2018-05-10T15:14:59.685Z,50.70
2018-05-10T15:17:28.209Z,52.30
2018-05-10T15:19:55.973Z,52.30
2018-05-10T15:22:23.737Z,51.90
2018-05-10T15:24:51.527Z,51.90
2018-05-10T15:27:19.497Z,51.90
2018-05-10T15:29:47.363Z,51.70
2018-05-10T15:32:15.389Z,52.20
2018-05-10T15:34:43.302Z,51.50
2018-05-10T15:37:11.168Z,51.40
2018-05-10T15:39:39.035Z,51.90
2018-05-10T15:42:06.901Z,52.10
2018-05-10T15:44:34.705Z,51.90
2018-05-10T15:47:03.353Z,51.80
2018-05-10T15:49:31.162Z,51.80
2018-05-10T15:51:59.686Z,52.10
2018-05-10T15:54:27.570Z,52.10
2018-05-10T15:56:55.434Z,52.20
2018-05-10T15:59:23.229Z,52.30
2018-05-10T16:01:51.780Z,53.10
2018-05-10T16:04:19.649Z,52.90
2018-05-10T16:06:47.615Z,53.10
2018-05-10T16:09:15.585Z,53.20
2018-05-10T16:11:43.451Z,53.60
2018-05-10T16:14:11.318Z,53.50
2018-05-10T16:16:39.492Z,53.40
2018-05-10T16:19:07.267Z,53.50
2018-05-10T16:21:35.930Z,54.10
2018-05-10T16:24:04.525Z,53.70
2018-05-10T16:26:32.592Z,53.70
2018-05-10T16:29:01.179Z,53.10
2018-05-10T16:31:29.047Z,53.10
2018-05-10T16:33:56.914Z,53.40
2018-05-10T16:36:24.784Z,53.30
2018-05-10T16:38:52.645Z,53.80
2018-05-10T16:41:20.393Z,53.40
2018-05-10T16:43:48.153Z,54.00
2018-05-10T16:46:15.958Z,54.40
2018-05-10T16:48:43.752Z,54.50
2018-05-10T16:51:12.303Z,55.70
2018-05-10T16:53:40.082Z,55.60
2018-05-10T16:56:08.018Z,55.20
2018-05-10T16:58:35.989Z,52.10
2018-05-10T17:01:03.848Z,50.90
2018-05-10T17:03:31.721Z,51.30
2018-05-10T17:06:00.305Z,50.40
2018-05-10T17:08:28.274Z,50.40
2018-05-10T17:10:56.021Z,50.60
2018-05-10T17:13:23.794Z,50.80
2018-05-10T17:15:51.553Z,52.00
2018-05-10T17:18:19.312Z,51.50
2018-05-10T17:20:47.126Z,51.40
2018-05-10T17:23:14.895Z,52.60
2018-05-10T17:25:43.419Z,51.70
2018-05-10T17:28:11.308Z,51.70
2018-05-10T17:30:39.174Z,51.70
2018-05-10T17:33:07.042Z,53.00
2018-05-10T17:35:34.908Z,53.10
2018-05-10T17:38:02.848Z,51.90
2018-05-10T17:40:30.668Z,51.00
2018-05-10T17:42:58.610Z,51.00
2018-05-10T17:45:26.480Z,51.50
2018-05-10T17:47:54.344Z,52.50
2018-05-10T17:50:22.143Z,52.70
2018-05-10T17:52:50.793Z,54.60
2018-05-10T17:55:18.812Z,54.50
2018-05-10T17:57:48.379Z,55.70
2018-05-10T18:00:16.167Z,55.60
2018-05-10T18:02:44.699Z,56.20
2018-05-10T18:05:12.583Z,56.20
2018-05-10T18:07:40.450Z,56.00
2018-05-10T18:10:08.661Z,56.30
2018-05-10T18:12:38.128Z,56.50
2018-05-10T18:15:06.313Z,56.50
2018-05-10T18:17:34.883Z,56.80
2018-05-10T18:20:03.012Z,56.80
2018-05-10T18:22:30.785Z,57.20
2018-05-10T18:24:59.306Z,57.90
2018-05-10T18:27:27.067Z,57.90
2018-05-10T18:29:55.559Z,58.50
2018-05-10T18:32:23.417Z,58.90
2018-05-10T18:34:51.213Z,59.00
2018-05-10T18:37:19.664Z,59.30
2018-05-10T18:39:47.631Z,59.50
2018-05-10T18:42:15.530Z,59.50
2018-05-10T18:44:44.798Z,58.60
2018-05-10T18:47:12.737Z,58.60
2018-05-10T18:49:40.592Z,58.60
2018-05-10T18:52:09.042Z,58.40
2018-05-10T18:54:36.904Z,58.80
2018-05-10T18:57:04.777Z,58.80
2018-05-10T18:59:32.612Z,58.90
2018-05-10T19:02:00.479Z,59.90
2018-05-10T19:04:29.164Z,59.30
2018-05-10T19:06:56.916Z,59.70
2018-05-10T19:09:24.877Z,60.20
2018-05-10T19:11:53.892Z,61.20
2018-05-10T19:14:22.672Z,61.10
2018-05-10T19:16:51.294Z,61.10
2018-05-10T19:19:19.948Z,61.80
2018-05-10T19:21:48.429Z,61.60
2018-05-10T19:24:16.397Z,62.00
2018-05-10T19:26:45.596Z,62.00
2018-05-10T19:29:13.462Z,61.80
2018-05-10T19:31:41.952Z,61.80
2018-05-10T19:34:10.220Z,61.60
2018-05-10T19:36:38.188Z,61.10
2018-05-10T19:39:06.088Z,61.60
2018-05-10T19:41:33.953Z,61.10
2018-05-10T19:44:01.899Z,61.30
2018-05-10T19:46:29.646Z,61.50
2018-05-10T19:48:58.444Z,61.50
2018-05-10T19:51:26.670Z,61.80
2018-05-10T19:53:55.232Z,61.80
2018-05-10T19:56:23.077Z,61.80
2018-05-10T19:58:51.468Z,62.10
2018-05-10T20:01:19.813Z,62.70
2018-05-10T20:03:48.133Z,63.40
2018-05-10T20:06:15.893Z,63.60
2018-05-10T20:08:44.022Z,64.10
2018-05-10T20:11:11.881Z,64.00
2018-05-10T20:13:39.695Z,64.70
2018-05-10T20:16:07.444Z,64.60
2018-05-10T20:18:35.211Z,64.60
2018-05-10T20:21:03.013Z,65.20
2018-05-10T20:23:31.522Z,64.60
2018-05-10T20:25:59.428Z,64.60
2018-05-10T20:28:27.199Z,64.10
2018-05-10T20:30:54.960Z,63.80
2018-05-10T20:33:22.712Z,63.60
2018-05-10T20:35:50.472Z,64.50
2018-05-10T20:38:18.220Z,64.50
2018-05-10T20:40:45.970Z,64.50
2018-05-10T20:43:13.806Z,64.50
2018-05-10T20:45:41.546Z,64.40
2018-05-10T20:48:09.301Z,64.70
2018-05-10T20:50:37.060Z,64.30
2018-05-10T20:53:04.919Z,63.60
2018-05-10T20:55:32.788Z,64.00
2018-05-10T20:58:00.581Z,64.40
2018-05-10T21:00:28.337Z,64.60
2018-05-10T21:02:56.109Z,65.80
2018-05-10T21:05:23.863Z,66.10
2018-05-10T21:07:51.613Z,65.90
2018-05-10T21:10:19.381Z,66.00
2018-05-10T21:12:47.141Z,66.20
2018-05-10T21:15:14.929Z,66.70
2018-05-10T21:17:42.730Z,67.10
2018-05-10T21:20:10.492Z,67.10
2018-05-10T21:22:38.251Z,67.70
2018-05-10T21:25:06.091Z,67.60
2018-05-10T21:27:34.613Z,67.90
2018-05-10T21:30:02.385Z,67.90
2018-05-10T21:32:30.272Z,67.80
2018-05-10T21:34:58.144Z,67.90
2018-05-10T21:37:26.111Z,68.20
2018-05-10T21:39:53.903Z,68.70
2018-05-10T21:42:21.841Z,68.90
2018-05-10T21:44:49.662Z,68.40
2018-05-10T21:47:17.379Z,68.40
2018-05-10T21:49:57.319Z,69.10
2018-05-10T21:52:25.288Z,69.20
2018-05-10T21:54:53.850Z,69.40
2018-05-10T21:57:22.325Z,69.20
2018-05-10T21:59:50.081Z,69.10
2018-05-10T22:02:20.677Z,69.20
2018-05-10T22:04:48.511Z,69.20
2018-05-10T22:07:16.481Z,70.10
2018-05-10T22:09:44.352Z,69.50
2018-05-10T22:12:12.233Z,69.80
2018-05-10T22:14:40.219Z,69.60
2018-05-10T22:17:09.263Z,68.90
2018-05-10T22:19:37.145Z,68.90
2018-05-10T22:22:05.013Z,69.80
2018-05-10T22:24:32.904Z,69.40
2018-05-10T22:27:01.565Z,69.20
2018-05-10T22:29:29.359Z,69.00
2018-05-10T22:31:57.299Z,69.80
2018-05-10T22:34:25.266Z,69.80
2018-05-10T22:36:53.133Z,69.70
2018-05-10T22:39:20.897Z,69.80
2018-05-10T22:41:48.764Z,69.10
2018-05-10T22:44:16.648Z,69.40
2018-05-10T22:46:44.499Z,70.10
2018-05-10T22:49:12.363Z,70.30
2018-05-10T22:51:40.333Z,69.90
2018-05-10T22:54:08.203Z,69.90
2018-05-10T22:56:36.065Z,69.80
2018-05-10T22:59:03.933Z,70.10
2018-05-10T23:01:31.904Z,69.80
2018-05-10T23:03:59.768Z,69.80
2018-05-10T23:06:27.636Z,69.60
2018-05-10T23:08:55.501Z,68.90
2018-05-10T23:11:23.374Z,69.70
2018-05-10T23:13:51.235Z,69.70
2018-05-10T23:16:19.101Z,70.00
2018-05-10T23:18:46.968Z,70.50
2018-05-10T23:21:14.833Z,70.50
2018-05-10T23:23:42.703Z,70.40
2018-05-10T23:26:11.386Z,71.00
2018-05-10T23:28:39.253Z,70.80
2018-05-10T23:31:07.122Z,71.10
2018-05-10T23:33:34.986Z,70.40
2018-05-10T23:36:02.852Z,70.30
2018-05-10T23:38:30.720Z,69.80
2018-05-10T23:40:58.586Z,70.50
2018-05-10T23:43:26.457Z,70.30
2018-05-10T23:45:54.323Z,69.60
2018-05-10T23:48:22.185Z,69.50
2018-05-10T23:50:49.950Z,69.50
2018-05-10T23:53:17.817Z,69.50
2018-05-10T23:55:45.683Z,69.20
2018-05-10T23:58:13.550Z,69.00
